createdAt,value
2019-02-04T00:00:45.456Z,96393.69
2019-02-04T00:01:50.311Z,96394.03
2019-02-04T00:02:53.926Z,96395.22
2019-02-04T00:03:57.608Z,96396.51
2019-02-04T00:05:01.038Z,96395.61
2019-02-04T00:06:04.699Z,96398.39
2019-02-04T00:07:08.339Z,96400.30
2019-02-04T00:08:12.166Z,96399.96
2019-02-04T00:09:15.945Z,96401.83
2019-02-04T00:10:19.511Z,96402.41
2019-02-04T00:11:23.154Z,96406.05
2019-02-04T00:12:26.689Z,96400.81
2019-02-04T00:13:30.291Z,96406.14
2019-02-04T00:14:33.774Z,96404.71
2019-02-04T00:15:37.460Z,96408.38
2019-02-04T00:16:41.389Z,96401.64
2019-02-04T00:17:44.883Z,96406.34
2019-02-04T00:18:48.476Z,96406.20
2019-02-04T00:19:52.115Z,96404.50
2019-02-04T00:20:56.049Z,96407.55
2019-02-04T00:21:59.481Z,96405.31
2019-02-04T00:23:03.435Z,96403.81
2019-02-04T00:24:06.959Z,96412.40
2019-02-04T00:25:10.561Z,96414.83
2019-02-04T00:26:14.126Z,96413.25
2019-02-04T00:27:17.638Z,96416.00
2019-02-04T00:28:21.141Z,96419.69
2019-02-04T00:29:24.682Z,96424.15
2019-02-04T00:30:28.899Z,96419.22
2019-02-04T00:31:32.470Z,96421.08
2019-02-04T00:32:35.903Z,96421.27
2019-02-04T00:33:39.406Z,96423.31
2019-02-04T00:34:42.938Z,96423.68
2019-02-04T00:35:46.468Z,96432.12
2019-02-04T00:36:50.204Z,96426.69
2019-02-04T00:37:54.167Z,96427.00
2019-02-04T00:38:57.645Z,96428.03
2019-02-04T00:40:01.107Z,96426.15
2019-02-04T00:41:04.708Z,96426.09
2019-02-04T00:42:08.277Z,96426.03
2019-02-04T00:43:11.867Z,96433.66
2019-02-04T00:44:15.297Z,96435.42
2019-02-04T00:45:18.834Z,96437.69
2019-02-04T00:46:22.265Z,96436.72
2019-02-04T00:47:25.703Z,96434.41
2019-02-04T00:48:29.283Z,96435.64
2019-02-04T00:49:32.809Z,96441.03
2019-02-04T00:50:36.610Z,96438.80
2019-02-04T00:51:40.527Z,96444.05
2019-02-04T00:52:44.141Z,96439.63
2019-02-04T00:53:47.693Z,96441.70
2019-02-04T00:54:51.206Z,96443.22
2019-02-04T00:55:54.734Z,96444.52
2019-02-04T00:56:58.373Z,96451.13
2019-02-04T00:58:01.848Z,96445.33
2019-02-04T00:59:05.638Z,96451.59
2019-02-04T01:00:24.079Z,96452.16
2019-02-04T01:01:27.716Z,96451.45
2019-02-04T01:02:31.228Z,96450.77
2019-02-04T01:03:34.751Z,96448.81
2019-02-04T01:04:38.327Z,96457.14
2019-02-04T01:05:41.768Z,96453.82
2019-02-04T01:06:45.414Z,96465.14
2019-02-04T01:07:49.390Z,96460.89
2019-02-04T01:08:54.706Z,96461.50
2019-02-04T01:09:58.305Z,96464.78
2019-02-04T01:11:02.047Z,96456.89
2019-02-04T01:12:05.681Z,96470.63
2019-02-04T01:13:09.237Z,96463.02
2019-02-04T01:14:12.817Z,96466.63
2019-02-04T01:15:16.375Z,96469.91
2019-02-04T01:16:19.943Z,96470.74
2019-02-04T01:17:23.478Z,96471.77
2019-02-04T01:18:26.935Z,96475.23
2019-02-04T01:19:30.459Z,96474.81
2019-02-04T01:20:34.025Z,96481.94
2019-02-04T01:21:37.631Z,96477.22
2019-02-04T01:22:41.290Z,96480.47
2019-02-04T01:23:45.108Z,96479.81
2019-02-04T01:24:48.554Z,96484.17
2019-02-04T01:25:52.122Z,96480.00
2019-02-04T01:26:55.736Z,96477.47
2019-02-04T01:27:59.280Z,96485.88
2019-02-04T01:29:03.016Z,96485.52
2019-02-04T01:30:12.325Z,96487.84
2019-02-04T01:31:15.852Z,96486.95
2019-02-04T01:32:19.366Z,96481.88
2019-02-04T01:33:22.824Z,96486.19
2019-02-04T01:34:26.270Z,96488.47
2019-02-04T01:35:29.707Z,96492.47
2019-02-04T01:36:33.227Z,96492.09
2019-02-04T01:37:36.657Z,96496.72
2019-02-04T01:38:40.294Z,96495.55
2019-02-04T01:39:44.079Z,96495.20
2019-02-04T01:40:47.510Z,96491.59
2019-02-04T01:41:50.939Z,96493.60
2019-02-04T01:42:55.321Z,96495.14
2019-02-04T01:43:58.972Z,96491.53
2019-02-04T01:45:02.627Z,96494.37
2019-02-04T01:46:06.076Z,96500.80
2019-02-04T01:47:14.731Z,96504.08
2019-02-04T01:48:14.901Z,96501.54
2019-02-04T01:49:18.423Z,96499.91
2019-02-04T01:50:22.946Z,96500.38
2019-02-04T01:51:26.418Z,96495.67
2019-02-04T01:52:30.007Z,96496.38
2019-02-04T01:53:33.611Z,96493.71
2019-02-04T01:54:37.437Z,96495.66
2019-02-04T01:55:41.003Z,96497.95
2019-02-04T01:56:44.438Z,96505.16
2019-02-04T01:57:50.427Z,96502.04
2019-02-04T01:58:53.881Z,96508.04
2019-02-04T01:59:57.309Z,96502.39
2019-02-04T02:01:00.894Z,96502.20
2019-02-04T02:02:04.493Z,96511.11
2019-02-04T02:03:08.090Z,96509.63
2019-02-04T02:04:11.637Z,96511.86
2019-02-04T02:05:15.620Z,96513.45
2019-02-04T02:06:19.130Z,96515.33
2019-02-04T02:07:22.693Z,96514.75
2019-02-04T02:08:26.396Z,96522.22
2019-02-04T02:09:30.437Z,96515.27
2019-02-04T02:10:34.051Z,96518.67
2019-02-04T02:11:37.625Z,96522.36
2019-02-04T02:12:41.212Z,96521.34
2019-02-04T02:13:44.736Z,96519.05
2019-02-04T02:14:48.263Z,96520.76
2019-02-04T02:15:51.710Z,96529.72
2019-02-04T02:16:55.256Z,96528.95
2019-02-04T02:17:58.766Z,96519.52
2019-02-04T02:19:02.347Z,96524.54
2019-02-04T02:20:09.192Z,96524.66
2019-02-04T02:21:12.680Z,96522.78
2019-02-04T02:22:16.109Z,96521.34
2019-02-04T02:23:19.613Z,96525.05
2019-02-04T02:24:23.519Z,96521.89
2019-02-04T02:25:27.120Z,96519.34
2019-02-04T02:26:30.559Z,96527.17
2019-02-04T02:27:34.063Z,96525.93
2019-02-04T02:28:37.494Z,96521.80
2019-02-04T02:29:40.989Z,96520.03
2019-02-04T02:30:44.526Z,96520.21
2019-02-04T02:31:48.098Z,96521.57
2019-02-04T02:32:51.634Z,96518.67
2019-02-04T02:33:55.053Z,96520.28
2019-02-04T02:34:58.516Z,96522.41
2019-02-04T02:36:01.976Z,96521.70
2019-02-04T02:37:05.513Z,96525.42
2019-02-04T02:38:09.339Z,96524.75
2019-02-04T02:39:12.798Z,96523.92
2019-02-04T02:40:19.305Z,96524.48
2019-02-04T02:41:22.760Z,96525.13
2019-02-04T02:42:26.269Z,96521.70
2019-02-04T02:43:29.698Z,96525.59
2019-02-04T02:44:33.127Z,96521.34
2019-02-04T02:45:36.572Z,96520.81
2019-02-04T02:46:40.087Z,96525.89
2019-02-04T02:47:43.601Z,96522.52
2019-02-04T02:48:47.038Z,96520.23
2019-02-04T02:49:50.545Z,96521.17
2019-02-04T02:50:54.008Z,96518.34
2019-02-04T02:51:57.805Z,96518.39
2019-02-04T02:53:01.607Z,96526.42
2019-02-04T02:54:05.183Z,96523.00
2019-02-04T02:55:17.333Z,96518.89
2019-02-04T02:56:20.928Z,96521.81
2019-02-04T02:57:24.366Z,96521.03
2019-02-04T02:58:27.806Z,96523.05
2019-02-04T02:59:31.259Z,96524.81
2019-02-04T03:00:34.996Z,96523.57
2019-02-04T03:01:38.449Z,96524.34
2019-02-04T03:02:41.943Z,96530.52
2019-02-04T03:03:45.523Z,96525.89
2019-02-04T03:04:49.026Z,96524.59
2019-02-04T03:05:52.614Z,96531.23
2019-02-04T03:06:56.207Z,96531.77
2019-02-04T03:08:00.099Z,96531.23
2019-02-04T03:09:05.409Z,96529.23
2019-02-04T03:10:11.692Z,96532.59
2019-02-04T03:11:15.278Z,96533.67
2019-02-04T03:12:18.748Z,96528.30
2019-02-04T03:13:22.207Z,96529.84
2019-02-04T03:14:25.643Z,96529.48
2019-02-04T03:15:29.212Z,96534.83
2019-02-04T03:16:32.806Z,96530.11
2019-02-04T03:17:36.385Z,96528.28
2019-02-04T03:18:39.883Z,96529.95
2019-02-04T03:19:43.353Z,96528.40
2019-02-04T03:20:46.847Z,96531.48
2019-02-04T03:21:50.304Z,96537.01
2019-02-04T03:22:53.756Z,96531.82
2019-02-04T03:24:00.637Z,96538.39
2019-02-04T03:25:02.884Z,96533.48
2019-02-04T03:26:06.563Z,96536.54
2019-02-04T03:27:09.977Z,96535.71
2019-02-04T03:28:13.505Z,96534.66
2019-02-04T03:29:17.119Z,96540.37
2019-02-04T03:30:31.339Z,96543.44
2019-02-04T03:31:34.933Z,96545.81
2019-02-04T03:32:38.415Z,96543.80
2019-02-04T03:33:41.955Z,96541.20
2019-02-04T03:34:45.426Z,96542.75
2019-02-04T03:35:48.869Z,96544.78
2019-02-04T03:36:52.292Z,96539.69
2019-02-04T03:37:55.879Z,96544.05
2019-02-04T03:38:59.548Z,96545.20
2019-02-04T03:40:04.900Z,96547.22
2019-02-04T03:41:08.679Z,96542.20
2019-02-04T03:42:12.193Z,96545.75
2019-02-04T03:43:15.657Z,96544.98
2019-02-04T03:44:19.103Z,96545.97
2019-02-04T03:45:22.692Z,96548.56
2019-02-04T03:46:26.280Z,96543.91
2019-02-04T03:47:29.709Z,96546.97
2019-02-04T03:48:33.146Z,96547.98
2019-02-04T03:49:36.610Z,96547.27
2019-02-04T03:50:40.107Z,96548.34
2019-02-04T03:51:43.614Z,96550.44
2019-02-04T03:52:47.195Z,96549.14
2019-02-04T03:53:50.697Z,96548.16
2019-02-04T03:54:54.299Z,96549.64
2019-02-04T03:55:59.627Z,96553.45
2019-02-04T03:57:03.227Z,96556.23
2019-02-04T03:58:06.793Z,96558.58
2019-02-04T03:59:10.380Z,96562.94
2019-02-04T04:00:19.586Z,96562.72
2019-02-04T04:01:23.184Z,96563.19
2019-02-04T04:02:26.623Z,96563.13
2019-02-04T04:03:30.126Z,96561.28
2019-02-04T04:04:33.627Z,96561.28
2019-02-04T04:05:37.318Z,96562.58
2019-02-04T04:06:40.819Z,96569.06
2019-02-04T04:07:44.342Z,96568.02
2019-02-04T04:08:47.862Z,96571.66
2019-02-04T04:09:51.291Z,96571.66
2019-02-04T04:10:54.935Z,96570.30
2019-02-04T04:11:58.369Z,96570.50
2019-02-04T04:13:01.871Z,96568.78
2019-02-04T04:14:05.579Z,96571.91
2019-02-04T04:15:11.538Z,96571.60
2019-02-04T04:16:15.069Z,96579.33
2019-02-04T04:17:18.603Z,96585.29
2019-02-04T04:18:22.115Z,96573.09
2019-02-04T04:19:25.611Z,96584.05
2019-02-04T04:20:29.127Z,96582.53
2019-02-04T04:21:32.578Z,96577.81
2019-02-04T04:22:36.082Z,96582.70
2019-02-04T04:23:39.584Z,96589.95
2019-02-04T04:24:43.088Z,96584.63
2019-02-04T04:25:46.789Z,96583.88
2019-02-04T04:26:50.252Z,96585.75
2019-02-04T04:27:53.740Z,96589.70
2019-02-04T04:28:57.189Z,96586.42
2019-02-04T04:30:00.624Z,96583.28
2019-02-04T04:31:04.217Z,96582.70
2019-02-04T04:32:07.747Z,96582.53
2019-02-04T04:33:11.249Z,96580.09
2019-02-04T04:34:14.693Z,96583.94
2019-02-04T04:35:18.269Z,96582.86
2019-02-04T04:36:21.701Z,96584.93
2019-02-04T04:37:25.215Z,96582.03
2019-02-04T04:38:28.735Z,96579.69
2019-02-04T04:39:32.339Z,96579.69
2019-02-04T04:40:35.788Z,96586.64
2019-02-04T04:41:39.300Z,96584.88
2019-02-04T04:42:42.909Z,96582.86
2019-02-04T04:43:46.368Z,96587.22
2019-02-04T04:44:49.801Z,96584.09
2019-02-04T04:45:53.300Z,96587.94
2019-02-04T04:46:56.729Z,96589.75
2019-02-04T04:48:00.197Z,96585.59
2019-02-04T04:49:03.628Z,96586.06
2019-02-04T04:50:08.802Z,96589.40
2019-02-04T04:51:12.226Z,96588.41
2019-02-04T04:52:15.659Z,96584.82
2019-02-04T04:53:19.305Z,96593.37
2019-02-04T04:54:23.099Z,96588.41
2019-02-04T04:55:27.281Z,96587.83
2019-02-04T04:56:30.788Z,96588.52
2019-02-04T04:57:34.220Z,96592.88
2019-02-04T04:58:40.583Z,96592.30
2019-02-04T04:59:42.866Z,96600.33
2019-02-04T05:00:46.446Z,96598.78
2019-02-04T05:01:49.884Z,96594.42
2019-02-04T05:02:53.385Z,96600.38
2019-02-04T05:03:56.923Z,96602.98
2019-02-04T05:05:00.348Z,96597.48
2019-02-04T05:06:03.902Z,96599.55
2019-02-04T05:07:07.407Z,96598.56
2019-02-04T05:08:11.282Z,96600.84
2019-02-04T05:09:14.753Z,96603.56
2019-02-04T05:10:20.782Z,96603.03
2019-02-04T05:11:24.227Z,96605.16
2019-02-04T05:12:27.782Z,96613.05
2019-02-04T05:13:31.167Z,96607.39
2019-02-04T05:14:34.696Z,96611.53
2019-02-04T05:15:38.149Z,96612.47
2019-02-04T05:16:41.591Z,96606.92
2019-02-04T05:17:45.157Z,96612.33
2019-02-04T05:18:48.599Z,96611.53
2019-02-04T05:19:52.062Z,96607.34
2019-02-04T05:20:55.533Z,96613.30
2019-02-04T05:21:58.967Z,96608.02
2019-02-04T05:23:02.775Z,96615.53
2019-02-04T05:24:06.212Z,96619.59
2019-02-04T05:25:10.305Z,96618.34
2019-02-04T05:26:13.778Z,96613.47
2019-02-04T05:27:17.207Z,96614.45
2019-02-04T05:28:20.634Z,96618.59
2019-02-04T05:29:24.138Z,96620.72
2019-02-04T05:30:27.658Z,96622.02
2019-02-04T05:31:31.159Z,96621.55
2019-02-04T05:32:34.752Z,96620.53
2019-02-04T05:33:38.245Z,96622.84
2019-02-04T05:34:41.698Z,96621.00
2019-02-04T05:35:45.162Z,96632.15
2019-02-04T05:36:48.892Z,96627.27
2019-02-04T05:37:52.830Z,96625.20
2019-02-04T05:38:56.325Z,96628.78
2019-02-04T05:39:59.769Z,96627.73
2019-02-04T05:41:03.376Z,96636.05
2019-02-04T05:42:06.805Z,96634.63
2019-02-04T05:43:10.245Z,96640.81
2019-02-04T05:44:13.676Z,96641.06
2019-02-04T05:45:20.843Z,96643.05
2019-02-04T05:46:24.288Z,96641.23
2019-02-04T05:47:27.751Z,96644.08
2019-02-04T05:48:31.164Z,96645.65
2019-02-04T05:49:34.772Z,96644.35
2019-02-04T05:50:38.217Z,96645.59
2019-02-04T05:51:42.061Z,96652.39
2019-02-04T05:52:45.717Z,96645.38
2019-02-04T05:53:49.146Z,96652.08
2019-02-04T05:54:52.590Z,96644.77
2019-02-04T05:55:56.038Z,96651.81
2019-02-04T05:56:59.516Z,96653.44
2019-02-04T05:58:03.030Z,96653.22
2019-02-04T05:59:06.715Z,96654.05
2019-02-04T06:00:16.465Z,96653.80
2019-02-04T06:01:19.941Z,96655.64
2019-02-04T06:02:23.436Z,96652.49
2019-02-04T06:03:26.948Z,96657.41
2019-02-04T06:04:30.457Z,96656.86
2019-02-04T06:05:34.031Z,96661.52
2019-02-04T06:06:37.683Z,96656.33
2019-02-04T06:07:41.314Z,96653.98
2019-02-04T06:08:44.743Z,96653.22
2019-02-04T06:09:48.207Z,96650.92
2019-02-04T06:10:51.633Z,96652.97
2019-02-04T06:11:55.078Z,96654.51
2019-02-04T06:12:58.546Z,96658.09
2019-02-04T06:14:01.969Z,96659.70
2019-02-04T06:15:11.396Z,96655.03
2019-02-04T06:16:14.891Z,96660.70
2019-02-04T06:17:18.357Z,96661.72
2019-02-04T06:18:21.887Z,96665.11
2019-02-04T06:19:25.330Z,96664.17
2019-02-04T06:20:29.015Z,96669.91
2019-02-04T06:21:32.477Z,96664.48
2019-02-04T06:22:36.206Z,96669.41
2019-02-04T06:23:39.867Z,96670.66
2019-02-04T06:24:43.284Z,96677.34
2019-02-04T06:25:46.846Z,96671.13
2019-02-04T06:26:50.287Z,96677.45
2019-02-04T06:27:53.832Z,96676.41
2019-02-04T06:28:57.348Z,96675.68
2019-02-04T06:30:00.781Z,96681.85
2019-02-04T06:31:04.433Z,96679.98
2019-02-04T06:32:07.935Z,96682.00
2019-02-04T06:33:11.452Z,96685.75
2019-02-04T06:34:14.985Z,96679.73
2019-02-04T06:35:19.060Z,96683.58
2019-02-04T06:36:22.784Z,96686.17
2019-02-04T06:37:26.214Z,96685.13
2019-02-04T06:38:29.677Z,96691.83
2019-02-04T06:39:33.117Z,96687.89
2019-02-04T06:40:36.727Z,96688.41
2019-02-04T06:41:40.202Z,96691.14
2019-02-04T06:42:43.800Z,96689.94
2019-02-04T06:43:47.256Z,96688.73
2019-02-04T06:44:50.681Z,96695.84
2019-02-04T06:45:54.112Z,96690.52
2019-02-04T06:46:57.548Z,96695.30
2019-02-04T06:48:01.077Z,96692.91
2019-02-04T06:49:12.013Z,96695.45
2019-02-04T06:50:14.692Z,96700.81
2019-02-04T06:51:18.373Z,96694.27
2019-02-04T06:52:22.082Z,96692.72
2019-02-04T06:53:25.542Z,96695.31
2019-02-04T06:54:29.120Z,96696.67
2019-02-04T06:55:33.717Z,96703.41
2019-02-04T06:56:37.156Z,96700.64
2019-02-04T06:57:40.585Z,96704.23
2019-02-04T06:58:44.050Z,96703.41
2019-02-04T06:59:47.529Z,96705.23
2019-02-04T07:00:50.971Z,96709.12
2019-02-04T07:01:54.559Z,96711.49
2019-02-04T07:02:58.149Z,96714.83
2019-02-04T07:04:01.678Z,96713.78
2019-02-04T07:05:07.428Z,96712.54
2019-02-04T07:06:11.278Z,96711.81
2019-02-04T07:07:15.272Z,96709.05
2019-02-04T07:08:18.767Z,96714.50
2019-02-04T07:09:22.214Z,96707.03
2019-02-04T07:10:27.434Z,96708.58
2019-02-04T07:11:30.931Z,96709.88
2019-02-04T07:12:34.367Z,96708.58
2019-02-04T07:13:42.135Z,96702.20
2019-02-04T07:14:42.973Z,96706.34
2019-02-04T07:15:46.569Z,96707.59
2019-02-04T07:16:50.007Z,96706.86
2019-02-04T07:17:53.443Z,96709.52
2019-02-04T07:18:56.877Z,96710.28
2019-02-04T07:20:00.739Z,96716.02
2019-02-04T07:21:04.753Z,96715.30
2019-02-04T07:22:08.367Z,96723.23
2019-02-04T07:23:11.811Z,96715.25
2019-02-04T07:24:15.256Z,96712.23
2019-02-04T07:25:19.391Z,96719.85
2019-02-04T07:26:22.890Z,96717.98
2019-02-04T07:27:26.325Z,96724.27
2019-02-04T07:28:29.902Z,96720.16
2019-02-04T07:29:33.348Z,96723.22
2019-02-04T07:30:36.814Z,96725.09
2019-02-04T07:31:40.319Z,96724.05
2019-02-04T07:32:44.019Z,96723.80
2019-02-04T07:33:47.737Z,96723.75
2019-02-04T07:34:51.218Z,96724.17
2019-02-04T07:35:54.764Z,96727.39
2019-02-04T07:36:58.177Z,96724.32
2019-02-04T07:38:01.683Z,96727.89
2019-02-04T07:39:07.548Z,96726.81
2019-02-04T07:40:14.022Z,96730.13
2019-02-04T07:41:17.481Z,96733.37
2019-02-04T07:42:20.921Z,96737.98
2019-02-04T07:43:24.419Z,96732.19
2019-02-04T07:44:27.930Z,96731.61
2019-02-04T07:45:31.542Z,96731.08
2019-02-04T07:46:35.074Z,96729.59
2019-02-04T07:47:38.569Z,96725.17
2019-02-04T07:48:42.345Z,96726.47
2019-02-04T07:49:45.808Z,96727.30
2019-02-04T07:50:49.246Z,96724.87
2019-02-04T07:51:52.690Z,96734.98
2019-02-04T07:52:56.282Z,96731.44
2019-02-04T07:53:59.779Z,96729.42
2019-02-04T07:55:03.355Z,96731.24
2019-02-04T07:56:06.973Z,96730.55
2019-02-04T07:57:10.567Z,96729.00
2019-02-04T07:58:14.071Z,96727.95
2019-02-04T07:59:17.562Z,96728.17
2019-02-04T08:00:23.357Z,96728.48
2019-02-04T08:01:26.887Z,96725.28
2019-02-04T08:02:30.504Z,96732.73
2019-02-04T08:03:34.539Z,96726.67
2019-02-04T08:04:38.039Z,96727.13
2019-02-04T08:05:41.545Z,96730.98
2019-02-04T08:06:45.008Z,96733.02
2019-02-04T08:07:48.518Z,96730.73
2019-02-04T08:08:52.025Z,96726.67
2019-02-04T08:09:55.560Z,96732.95
2019-02-04T08:10:59.052Z,96728.78
2019-02-04T08:12:02.582Z,96731.11
2019-02-04T08:13:06.252Z,96731.04
2019-02-04T08:14:09.782Z,96724.20
2019-02-04T08:15:18.819Z,96720.01
2019-02-04T08:16:22.430Z,96718.71
2019-02-04T08:17:25.971Z,96717.66
2019-02-04T08:18:29.884Z,96715.64
2019-02-04T08:19:33.319Z,96715.06
2019-02-04T08:20:36.823Z,96713.52
2019-02-04T08:21:40.257Z,96717.01
2019-02-04T08:22:43.860Z,96714.78
2019-02-04T08:23:47.326Z,96714.73
2019-02-04T08:24:50.826Z,96713.96
2019-02-04T08:25:54.250Z,96716.39
2019-02-04T08:26:57.756Z,96715.98
2019-02-04T08:28:01.289Z,96711.56
2019-02-04T08:29:04.969Z,96710.48
2019-02-04T08:30:14.318Z,96706.48
2019-02-04T08:31:17.970Z,96719.81
2019-02-04T08:32:21.400Z,96707.93
2019-02-04T08:33:25.231Z,96714.89
2019-02-04T08:34:28.667Z,96707.28
2019-02-04T08:35:32.244Z,96706.45
2019-02-04T08:36:43.488Z,96710.88
2019-02-04T08:37:41.029Z,96705.63
2019-02-04T08:38:44.479Z,96704.73
2019-02-04T08:39:47.980Z,96709.09
2019-02-04T08:40:51.492Z,96705.48
2019-02-04T08:41:54.919Z,96707.27
2019-02-04T08:42:58.431Z,96708.02
2019-02-04T08:44:02.087Z,96711.17
2019-02-04T08:45:07.593Z,96715.95
2019-02-04T08:46:11.164Z,96711.34
2019-02-04T08:47:22.809Z,96718.36
2019-02-04T08:48:20.280Z,96711.34
2019-02-04T08:49:23.797Z,96710.45
2019-02-04T08:50:28.281Z,96711.75
2019-02-04T08:51:31.709Z,96715.59
2019-02-04T08:52:35.146Z,96710.61
2019-02-04T08:53:38.605Z,96713.87
2019-02-04T08:54:42.061Z,96717.61
2019-02-04T08:55:45.495Z,96719.18
2019-02-04T08:56:48.927Z,96718.96
2019-02-04T08:57:52.497Z,96716.12
2019-02-04T08:58:55.956Z,96717.01
2019-02-04T08:59:59.399Z,96715.81
2019-02-04T09:01:03.416Z,96711.02
2019-02-04T09:02:06.918Z,96705.97
2019-02-04T09:03:10.497Z,96713.34
2019-02-04T09:04:14.022Z,96720.45
2019-02-04T09:05:18.413Z,96713.19
2019-02-04T09:06:21.916Z,96718.73
2019-02-04T09:07:25.410Z,96720.31
2019-02-04T09:08:28.843Z,96719.84
2019-02-04T09:09:32.373Z,96726.81
2019-02-04T09:10:35.805Z,96724.31
2019-02-04T09:11:39.303Z,96724.46
2019-02-04T09:12:42.867Z,96726.56
2019-02-04T09:13:46.577Z,96726.94
2019-02-04T09:14:50.165Z,96728.64
2019-02-04T09:15:53.628Z,96724.36
2019-02-04T09:16:57.070Z,96732.63
2019-02-04T09:18:00.838Z,96725.54
2019-02-04T09:19:04.530Z,96731.59
2019-02-04T09:20:11.258Z,96732.46
2019-02-04T09:21:14.766Z,96734.45
2019-02-04T09:22:18.223Z,96736.41
2019-02-04T09:23:21.711Z,96728.30
2019-02-04T09:24:25.130Z,96732.13
2019-02-04T09:25:28.727Z,96731.92
2019-02-04T09:26:32.233Z,96732.14
2019-02-04T09:27:35.937Z,96737.06
2019-02-04T09:28:39.434Z,96728.94
2019-02-04T09:29:42.949Z,96731.76
2019-02-04T09:30:46.537Z,96726.09
2019-02-04T09:31:49.964Z,96731.98
2019-02-04T09:32:54.083Z,96737.45
2019-02-04T09:33:57.583Z,96704.70
2019-02-04T09:35:01.018Z,96732.52
2019-02-04T09:36:04.612Z,96740.27
2019-02-04T09:37:08.119Z,96741.36
2019-02-04T09:38:11.621Z,96738.76
2019-02-04T09:39:15.191Z,96741.27
2019-02-04T09:40:30.138Z,96736.30
2019-02-04T09:41:33.676Z,96733.45
2019-02-04T09:42:37.156Z,96734.37
2019-02-04T09:43:40.878Z,96733.70
2019-02-04T09:44:44.311Z,96728.94
2019-02-04T09:45:47.792Z,96734.91
2019-02-04T09:46:51.271Z,96732.46
2019-02-04T09:47:54.853Z,96733.06
2019-02-04T09:48:58.366Z,96731.41
2019-02-04T09:50:01.804Z,96731.09
2019-02-04T09:51:05.422Z,96737.42
2019-02-04T09:52:08.865Z,96723.73
2019-02-04T09:53:12.359Z,96732.70
2019-02-04T09:54:15.859Z,96728.95
2019-02-04T09:55:22.077Z,96734.76
2019-02-04T09:56:25.598Z,96735.53
2019-02-04T09:57:29.338Z,96731.16
2019-02-04T09:58:48.429Z,96732.86
2019-02-04T09:59:51.992Z,96731.41
2019-02-04T10:00:55.926Z,96736.38
2019-02-04T10:01:59.455Z,96740.06
2019-02-04T10:03:03.123Z,96737.28
2019-02-04T10:04:06.696Z,96733.23
2019-02-04T10:05:12.871Z,96733.01
2019-02-04T10:06:16.366Z,96732.47
2019-02-04T10:07:19.975Z,96727.15
2019-02-04T10:08:23.542Z,96724.66
2019-02-04T10:09:34.522Z,96724.16
2019-02-04T10:10:38.095Z,96714.59
2019-02-04T10:11:41.611Z,96711.85
2019-02-04T10:12:45.235Z,96709.03
2019-02-04T10:13:48.869Z,96712.48
2019-02-04T10:14:52.387Z,96708.44
2019-02-04T10:15:55.860Z,96706.36
2019-02-04T10:16:59.313Z,96705.98
2019-02-04T10:18:03.385Z,96707.59
2019-02-04T10:19:06.991Z,96702.67
2019-02-04T10:20:13.841Z,96701.93
2019-02-04T10:21:17.560Z,96696.02
2019-02-04T10:22:21.050Z,96700.52
2019-02-04T10:23:24.679Z,96698.77
2019-02-04T10:24:28.145Z,96689.05
2019-02-04T10:25:34.310Z,96684.83
2019-02-04T10:26:37.748Z,96682.09
2019-02-04T10:27:41.287Z,96677.93
2019-02-04T10:28:44.828Z,96684.69
2019-02-04T10:29:48.310Z,96677.09
2019-02-04T10:30:51.741Z,96676.05
2019-02-04T10:31:55.189Z,96679.48
2019-02-04T10:32:59.039Z,96674.59
2019-02-04T10:34:02.535Z,96678.03
2019-02-04T10:35:16.652Z,96679.89
2019-02-04T10:36:13.556Z,96681.55
2019-02-04T10:37:17.163Z,96682.30
2019-02-04T10:38:20.676Z,96688.91
2019-02-04T10:39:24.223Z,96692.08
2019-02-04T10:40:29.761Z,96689.30
2019-02-04T10:41:33.337Z,96686.39
2019-02-04T10:42:36.878Z,96690.16
2019-02-04T10:43:40.543Z,96685.41
2019-02-04T10:44:44.125Z,96679.13
2019-02-04T10:45:47.667Z,96675.22
2019-02-04T10:46:51.191Z,96673.98
2019-02-04T10:47:54.927Z,96665.63
2019-02-04T10:48:58.819Z,96665.34
2019-02-04T10:50:02.362Z,96659.05
2019-02-04T10:51:05.977Z,96659.45
2019-02-04T10:52:09.476Z,96664.72
2019-02-04T10:53:13.072Z,96656.43
2019-02-04T10:54:16.473Z,96664.16
2019-02-04T10:55:20.054Z,96658.84
2019-02-04T10:56:23.570Z,96657.70
2019-02-04T10:57:27.064Z,96657.67
2019-02-04T10:58:30.603Z,96651.48
2019-02-04T10:59:34.059Z,96651.98
2019-02-04T11:00:38.514Z,96653.72
2019-02-04T11:01:42.133Z,96649.56
2019-02-04T11:02:46.194Z,96650.18
2019-02-04T11:03:49.648Z,96652.17
2019-02-04T11:04:53.114Z,96642.57
2019-02-04T11:05:56.591Z,96648.95
2019-02-04T11:07:00.154Z,96642.20
2019-02-04T11:08:04.139Z,96643.05
2019-02-04T11:09:08.915Z,96636.33
2019-02-04T11:10:15.466Z,96637.27
2019-02-04T11:11:18.932Z,96636.46
2019-02-04T11:12:22.403Z,96634.78
2019-02-04T11:13:25.877Z,96637.02
2019-02-04T11:14:29.562Z,96637.97
2019-02-04T11:15:33.316Z,96642.91
2019-02-04T11:16:37.161Z,96635.34
2019-02-04T11:17:41.001Z,96633.94
2019-02-04T11:18:44.548Z,96637.16
2019-02-04T11:19:48.003Z,96643.05
2019-02-04T11:20:58.163Z,96640.80
2019-02-04T11:21:56.916Z,96642.27
2019-02-04T11:23:00.583Z,96644.47
2019-02-04T11:24:04.671Z,96639.60
2019-02-04T11:25:08.975Z,96642.01
2019-02-04T11:26:12.576Z,96639.63
2019-02-04T11:27:16.102Z,96638.13
2019-02-04T11:28:19.683Z,96635.52
2019-02-04T11:29:23.270Z,96640.80
2019-02-04T11:30:29.772Z,96638.06
2019-02-04T11:31:33.290Z,96639.20
2019-02-04T11:32:37.143Z,96637.34
2019-02-04T11:33:40.782Z,96633.95
2019-02-04T11:34:44.232Z,96631.93
2019-02-04T11:35:47.877Z,96628.85
2019-02-04T11:36:51.374Z,96628.89
2019-02-04T11:37:57.794Z,96628.55
2019-02-04T11:39:01.259Z,96633.19
2019-02-04T11:40:07.708Z,96628.03
2019-02-04T11:41:11.217Z,96631.38
2019-02-04T11:42:14.679Z,96633.37
2019-02-04T11:43:18.156Z,96632.96
2019-02-04T11:44:21.768Z,96630.44
2019-02-04T11:45:25.601Z,96627.75
2019-02-04T11:46:29.010Z,96621.31
2019-02-04T11:47:32.619Z,96620.45
2019-02-04T11:48:36.581Z,96617.87
2019-02-04T11:49:40.073Z,96611.78
2019-02-04T11:50:43.684Z,96612.50
2019-02-04T11:51:47.125Z,96610.66
2019-02-04T11:52:50.637Z,96608.83
2019-02-04T11:53:54.253Z,96609.72
2019-02-04T11:54:57.697Z,96600.77
2019-02-04T11:56:01.208Z,96609.20
2019-02-04T11:57:04.733Z,96605.03
2019-02-04T11:58:08.409Z,96607.16
2019-02-04T11:59:11.836Z,96606.61
2019-02-04T12:00:18.281Z,96600.34
2019-02-04T12:01:21.849Z,96608.61
2019-02-04T12:02:34.384Z,96604.77
2019-02-04T12:03:31.004Z,96599.22
2019-02-04T12:04:34.510Z,96602.40
2019-02-04T12:05:39.117Z,96600.86
2019-02-04T12:06:42.936Z,96596.61
2019-02-04T12:07:52.477Z,96598.19
2019-02-04T12:08:58.314Z,96593.41
2019-02-04T12:10:01.886Z,96592.80
2019-02-04T12:11:06.331Z,96593.22
2019-02-04T12:12:10.389Z,96596.09
2019-02-04T12:13:13.972Z,96594.59
2019-02-04T12:14:17.382Z,96595.48
2019-02-04T12:15:22.606Z,96592.69
2019-02-04T12:16:26.116Z,96595.98
2019-02-04T12:17:29.615Z,96595.78
2019-02-04T12:18:33.129Z,96590.14
2019-02-04T12:19:36.947Z,96587.86
2019-02-04T12:20:40.450Z,96588.39
2019-02-04T12:21:43.954Z,96578.80
2019-02-04T12:22:49.022Z,96577.73
2019-02-04T12:23:52.543Z,96574.02
2019-02-04T12:24:55.992Z,96572.70
2019-02-04T12:25:59.491Z,96576.63
2019-02-04T12:27:02.927Z,96572.47
2019-02-04T12:28:06.600Z,96574.88
2019-02-04T12:29:10.116Z,96570.86
2019-02-04T12:30:19.575Z,96585.14